createdAt,value
2022-09-27T00:00:13.542Z,87.50
2022-09-27T00:05:18.360Z,87.50
2022-09-27T00:10:21.135Z,87.50
2022-09-27T00:15:23.588Z,87.50
2022-09-27T00:20:27.577Z,87.50
2022-09-27T00:25:30.094Z,87.70
2022-09-27T00:30:32.807Z,87.70
2022-09-27T00:35:36.805Z,87.80
2022-09-27T00:40:39.824Z,88.00
2022-09-27T00:45:43.302Z,87.90
2022-09-27T00:50:51.203Z,87.80
2022-09-27T00:55:56.113Z,87.90
2022-09-27T01:01:02.797Z,87.80
2022-09-27T01:06:09.293Z,87.80
2022-09-27T01:11:21.414Z,87.60
2022-09-27T01:16:35.141Z,87.70
2022-09-27T01:21:57.059Z,87.80
2022-09-27T01:27:35.802Z,88.00
2022-09-27T01:32:48.736Z,88.00
2022-09-27T01:38:02.517Z,87.70
2022-09-27T01:43:10.030Z,87.80
2022-09-27T01:48:18.882Z,87.80
2022-09-27T01:53:26.032Z,87.80
2022-09-27T01:58:34.704Z,87.80
2022-09-27T02:03:42.703Z,87.80
2022-09-27T02:08:49.649Z,87.70
2022-09-27T02:13:58.253Z,87.80
2022-09-27T02:19:10.738Z,87.80
2022-09-27T02:24:21.670Z,88.00
2022-09-27T02:29:30.779Z,88.00
2022-09-27T02:34:36.790Z,87.90
2022-09-27T02:39:39.539Z,89.00
2022-09-27T02:44:42.949Z,88.20
2022-09-27T02:50:03.432Z,88.20
2022-09-27T02:55:15.108Z,88.40
2022-09-27T03:00:20.519Z,88.20
2022-09-27T03:05:28.307Z,88.10
2022-09-27T03:10:30.918Z,88.20
2022-09-27T03:15:33.861Z,88.20
2022-09-27T03:20:37.787Z,88.50
2022-09-27T03:25:41.150Z,87.90
2022-09-27T03:30:45.489Z,87.80
2022-09-27T03:35:49.807Z,87.70
2022-09-27T03:40:52.603Z,87.70
2022-09-27T03:45:55.357Z,87.70
2022-09-27T03:50:59.222Z,87.70
2022-09-27T03:56:02.360Z,87.90
2022-09-27T04:01:04.997Z,88.00
2022-09-27T04:06:10.406Z,88.10
2022-09-27T04:15:31.115Z,87.90
2022-09-27T04:20:35.963Z,88.10
2022-09-27T04:25:38.947Z,88.20
2022-09-27T04:30:43.373Z,88.20
2022-09-27T04:35:45.923Z,88.10
2022-09-27T04:40:48.495Z,88.10
2022-09-27T04:45:52.552Z,88.10
2022-09-27T04:50:58.791Z,88.10
2022-09-27T04:56:01.937Z,88.20
2022-09-27T05:01:07.130Z,88.20
2022-09-27T05:06:09.797Z,88.20
2022-09-27T05:11:12.711Z,88.10
2022-09-27T05:16:16.779Z,88.10
2022-09-27T05:21:19.901Z,88.10
2022-09-27T05:26:22.523Z,88.10
2022-09-27T05:31:26.537Z,88.20
2022-09-27T05:36:29.070Z,88.20
2022-09-27T05:41:32.100Z,88.20
2022-09-27T05:46:36.684Z,88.30
2022-09-27T05:51:39.535Z,88.30
2022-09-27T05:56:42.439Z,88.20
2022-09-27T06:01:46.759Z,88.20
2022-09-27T06:06:49.651Z,88.30
2022-09-27T06:11:52.504Z,88.10
2022-09-27T06:16:56.658Z,88.00
2022-09-27T06:21:59.304Z,88.00
2022-09-27T06:27:02.157Z,88.00
2022-09-27T06:32:06.318Z,88.20
2022-09-27T06:37:08.681Z,88.30
2022-09-27T06:42:11.442Z,88.30
2022-09-27T06:47:15.678Z,88.60
2022-09-27T06:52:18.274Z,88.40
2022-09-27T06:57:21.296Z,88.50
2022-09-27T07:02:25.330Z,88.40
2022-09-27T07:07:29.608Z,88.50
2022-09-27T07:12:32.010Z,88.60
2022-09-27T07:17:36.153Z,88.50
2022-09-27T07:22:40.860Z,88.40
2022-09-27T07:27:43.931Z,88.40
2022-09-27T07:32:48.713Z,88.40
2022-09-27T07:37:51.123Z,89.30
2022-09-27T07:42:57.863Z,88.60
2022-09-27T07:48:04.933Z,88.60
2022-09-27T07:53:07.621Z,88.60
2022-09-27T07:58:11.547Z,89.30
2022-09-27T08:03:17.539Z,88.40
2022-09-27T08:08:20.262Z,88.40
2022-09-27T08:13:22.988Z,88.40
2022-09-27T08:18:27.504Z,88.30
2022-09-27T08:23:31.221Z,88.30
2022-09-27T08:28:33.771Z,89.20
2022-09-27T08:33:41.499Z,88.20
2022-09-27T08:38:44.741Z,88.30
2022-09-27T08:43:56.581Z,88.30
2022-09-27T08:49:13.934Z,88.30
2022-09-27T08:54:22.556Z,88.40
2022-09-27T08:59:30.622Z,88.40
2022-09-27T09:04:37.987Z,88.50
2022-09-27T09:09:42.080Z,88.50
2022-09-27T09:15:01.474Z,88.40
2022-09-27T09:20:26.349Z,88.30
2022-09-27T09:25:36.965Z,88.00
2022-09-27T09:30:52.360Z,87.90
2022-09-27T09:36:02.531Z,87.90
2022-09-27T09:41:13.171Z,88.00
2022-09-27T09:46:21.487Z,88.10
2022-09-27T09:51:32.381Z,88.40
2022-09-27T09:56:40.430Z,88.70
2022-09-27T10:01:46.005Z,89.10
2022-09-27T10:06:51.939Z,88.70
2022-09-27T10:11:54.767Z,87.80
2022-09-27T10:17:00.144Z,86.30
2022-09-27T10:22:14.113Z,84.00
2022-09-27T10:27:16.554Z,82.30
2022-09-27T10:32:23.391Z,83.30
2022-09-27T10:37:27.717Z,83.30
2022-09-27T10:42:36.305Z,83.80
2022-09-27T10:47:38.743Z,83.70
2022-09-27T10:52:43.007Z,84.20
2022-09-27T10:57:50.237Z,84.10
2022-09-27T11:02:53.228Z,84.30
2022-09-27T11:07:58.241Z,84.90
2022-09-27T11:13:09.388Z,84.30
2022-09-27T11:18:24.598Z,83.50
2022-09-27T11:23:47.257Z,82.20
2022-09-27T11:28:58.574Z,81.50
2022-09-27T11:34:16.545Z,82.20
2022-09-27T11:39:29.619Z,82.30
2022-09-27T11:45:19.868Z,82.20
2022-09-27T11:50:48.442Z,80.80
2022-09-27T11:56:03.787Z,81.80
2022-09-27T12:01:21.658Z,81.60
2022-09-27T12:06:30.102Z,82.60
2022-09-27T12:11:39.351Z,83.40
2022-09-27T12:16:42.670Z,81.90
2022-09-27T12:21:45.439Z,79.10
2022-09-27T12:26:51.837Z,76.10
2022-09-27T12:32:05.481Z,74.10
2022-09-27T12:37:14.578Z,74.00
2022-09-27T12:42:22.789Z,73.60
2022-09-27T12:47:46.120Z,74.60
2022-09-27T12:52:55.674Z,75.00
2022-09-27T12:58:39.922Z,76.10
2022-09-27T13:04:00.392Z,76.10
2022-09-27T13:09:34.298Z,77.20
2022-09-27T13:14:45.381Z,78.70
2022-09-27T13:19:47.772Z,79.80
2022-09-27T13:24:50.547Z,79.80
2022-09-27T13:30:38.616Z,79.40
2022-09-27T13:35:41.060Z,79.10
2022-09-27T13:40:43.615Z,79.50
2022-09-27T13:45:53.838Z,79.30
2022-09-27T13:51:01.706Z,78.50
2022-09-27T13:56:05.764Z,79.10
2022-09-27T14:01:20.129Z,79.20
2022-09-27T14:06:26.882Z,80.10
2022-09-27T14:11:34.158Z,80.50
2022-09-27T14:16:42.823Z,80.80
2022-09-27T14:21:47.291Z,80.30
2022-09-27T14:26:50.636Z,79.60
2022-09-27T14:32:07.344Z,78.90
2022-09-27T14:37:22.058Z,78.10
2022-09-27T14:42:27.335Z,78.10
2022-09-27T14:47:32.480Z,78.40
2022-09-27T14:52:35.172Z,78.20
2022-09-27T14:57:38.585Z,77.90
2022-09-27T15:02:43.518Z,78.10
2022-09-27T15:07:47.509Z,78.40
2022-09-27T15:12:51.755Z,78.90
2022-09-27T15:17:55.642Z,79.10
2022-09-27T15:22:59.766Z,78.70
2022-09-27T15:28:06.049Z,78.50
2022-09-27T15:33:20.281Z,78.50
2022-09-27T15:38:30.541Z,77.90
2022-09-27T15:43:36.057Z,77.90
2022-09-27T15:48:40.349Z,78.00
2022-09-27T15:53:46.869Z,77.90
2022-09-27T15:58:49.222Z,78.10
2022-09-27T16:03:53.057Z,78.40
2022-09-27T16:08:55.704Z,78.40
2022-09-27T16:13:58.452Z,78.60
2022-09-27T16:19:02.422Z,78.60
2022-09-27T16:24:06.314Z,78.70
2022-09-27T16:29:11.891Z,78.80
2022-09-27T16:34:15.864Z,78.80
2022-09-27T16:39:18.442Z,79.00
2022-09-27T16:44:21.017Z,79.10
2022-09-27T16:49:25.029Z,79.40
2022-09-27T16:54:28.539Z,79.60
2022-09-27T16:59:32.050Z,79.90
2022-09-27T17:04:36.567Z,80.10
2022-09-27T17:09:39.069Z,80.50
2022-09-27T17:14:42.166Z,80.70
2022-09-27T17:19:46.199Z,80.60
2022-09-27T17:24:48.728Z,80.60
2022-09-27T17:29:51.322Z,80.50
2022-09-27T17:34:55.926Z,80.40
2022-09-27T17:39:58.352Z,80.70
2022-09-27T17:45:00.888Z,80.80
2022-09-27T17:50:05.245Z,80.90
2022-09-27T17:55:09.080Z,81.20
2022-09-27T18:00:12.002Z,81.30
2022-09-27T18:05:16.343Z,81.40
2022-09-27T18:10:18.898Z,81.70
2022-09-27T18:15:21.739Z,81.80
2022-09-27T18:20:26.671Z,82.10
2022-09-27T18:25:29.548Z,82.30
2022-09-27T18:30:34.108Z,82.40
2022-09-27T18:35:37.986Z,82.60
2022-09-27T18:40:55.677Z,82.70
2022-09-27T18:46:17.909Z,83.00
2022-09-27T18:51:27.140Z,83.10
2022-09-27T18:56:31.480Z,83.40
2022-09-27T19:01:34.813Z,83.40
2022-09-27T19:06:40.062Z,83.30
2022-09-27T19:11:42.671Z,83.40
2022-09-27T19:16:45.466Z,83.10
2022-09-27T19:21:49.519Z,83.10
2022-09-27T19:26:52.275Z,83.10
2022-09-27T19:31:55.086Z,83.10
2022-09-27T19:36:59.379Z,83.20
2022-09-27T19:42:03.403Z,83.30
2022-09-27T19:47:06.170Z,83.30
2022-09-27T19:52:10.270Z,83.40
2022-09-27T19:57:14.074Z,83.70
2022-09-27T20:02:16.563Z,83.70
2022-09-27T20:07:20.794Z,83.80
2022-09-27T20:12:24.228Z,83.90
2022-09-27T20:17:27.193Z,84.00
2022-09-27T20:22:31.266Z,84.10
2022-09-27T20:27:34.879Z,84.20
2022-09-27T20:32:37.433Z,84.20
2022-09-27T20:37:41.735Z,84.20
2022-09-27T20:42:44.794Z,84.20
2022-09-27T20:47:47.404Z,84.20
2022-09-27T20:52:51.214Z,84.20
2022-09-27T20:57:57.681Z,85.20
2022-09-27T21:03:00.599Z,84.40
2022-09-27T21:08:04.455Z,84.50
2022-09-27T21:13:06.839Z,84.60
2022-09-27T21:18:09.347Z,84.40
2022-09-27T21:23:13.669Z,84.30
2022-09-27T21:28:16.243Z,84.30
2022-09-27T21:33:18.739Z,84.40
2022-09-27T21:38:23.139Z,84.30
2022-09-27T21:43:27.292Z,84.40
2022-09-27T21:48:30.372Z,84.50
2022-09-27T21:53:35.117Z,84.50
2022-09-27T21:58:39.313Z,84.50
2022-09-27T22:03:43.155Z,84.40
2022-09-27T22:08:48.495Z,84.40
2022-09-27T22:13:50.989Z,84.50
2022-09-27T22:18:55.546Z,84.50
2022-09-27T22:24:07.525Z,84.50
2022-09-27T22:29:10.910Z,84.60
2022-09-27T22:34:16.359Z,85.30
2022-09-27T22:39:20.134Z,84.50
2022-09-27T22:44:22.493Z,84.60
2022-09-27T22:49:24.903Z,84.60
2022-09-27T22:54:28.729Z,84.60
2022-09-27T22:59:30.977Z,84.80
2022-09-27T23:04:33.329Z,84.90
2022-09-27T23:09:37.327Z,85.00
2022-09-27T23:14:42.641Z,85.00
2022-09-27T23:19:45.385Z,85.10
2022-09-27T23:24:49.299Z,85.10
2022-09-27T23:29:51.656Z,85.30
2022-09-27T23:34:53.861Z,85.60
2022-09-27T23:39:57.693Z,85.80
2022-09-27T23:45:00.234Z,85.80
2022-09-27T23:50:03.763Z,85.90
2022-09-27T23:55:08.570Z,86.70
